sensor_id;sensor_type;location;lat;lon;timestamp;P1;durP1;ratioP1;P2;durP2;ratioP2
14510;SDS011;7341;50.930;4.038;2022-10-16T00:01:06;0.80;;;0.80;;
14510;SDS011;7341;50.930;4.038;2022-10-16T00:03:37;2.13;;;1.10;;
14510;SDS011;7341;50.930;4.038;2022-10-16T00:06:04;3.17;;;1.40;;
14510;SDS011;7341;50.930;4.038;2022-10-16T00:08:32;1.37;;;1.10;;
14510;SDS011;7341;50.930;4.038;2022-10-16T00:11:00;1.10;;;1.00;;
14510;SDS011;7341;50.930;4.038;2022-10-16T00:13:29;1.30;;;1.10;;
14510;SDS011;7341;50.930;4.038;2022-10-16T00:15:59;1.13;;;1.03;;
14510;SDS011;7341;50.930;4.038;2022-10-16T00:18:27;5.47;;;1.23;;
14510;SDS011;7341;50.930;4.038;2022-10-16T00:20:56;1.63;;;1.37;;
14510;SDS011;7341;50.930;4.038;2022-10-16T00:23:30;1.00;;;1.00;;
14510;SDS011;7341;50.930;4.038;2022-10-16T00:25:59;2.30;;;0.90;;
14510;SDS011;7341;50.930;4.038;2022-10-16T00:28:27;1.27;;;1.17;;
14510;SDS011;7341;50.930;4.038;2022-10-16T00:30:55;1.30;;;1.20;;
14510;SDS011;7341;50.930;4.038;2022-10-16T00:33:24;1.23;;;0.97;;
14510;SDS011;7341;50.930;4.038;2022-10-16T00:35:51;1.53;;;1.03;;
14510;SDS011;7341;50.930;4.038;2022-10-16T00:38:18;1.87;;;1.10;;
14510;SDS011;7341;50.930;4.038;2022-10-16T00:40:44;1.20;;;1.10;;
14510;SDS011;7341;50.930;4.038;2022-10-16T00:43:13;1.60;;;1.10;;
14510;SDS011;7341;50.930;4.038;2022-10-16T00:46:02;2.80;;;1.30;;
14510;SDS011;7341;50.930;4.038;2022-10-16T00:48:37;2.50;;;1.40;;
14510;SDS011;7341;50.930;4.038;2022-10-16T00:51:05;1.90;;;1.13;;
14510;SDS011;7341;50.930;4.038;2022-10-16T00:53:39;2.33;;;1.20;;
14510;SDS011;7341;50.930;4.038;2022-10-16T00:56:06;1.43;;;0.93;;
14510;SDS011;7341;50.930;4.038;2022-10-16T00:58:36;1.83;;;1.20;;
14510;SDS011;7341;50.930;4.038;2022-10-16T01:01:03;1.93;;;1.20;;
14510;SDS011;7341;50.930;4.038;2022-10-16T01:03:31;1.10;;;1.00;;
14510;SDS011;7341;50.930;4.038;2022-10-16T01:06:09;1.20;;;1.10;;
14510;SDS011;7341;50.930;4.038;2022-10-16T01:09:03;1.73;;;0.80;;
14510;SDS011;7341;50.930;4.038;2022-10-16T01:11:44;1.50;;;1.20;;
14510;SDS011;7341;50.930;4.038;2022-10-16T01:14:26;3.37;;;1.13;;
14510;SDS011;7341;50.930;4.038;2022-10-16T01:17:02;1.27;;;1.17;;
14510;SDS011;7341;50.930;4.038;2022-10-16T01:19:50;1.60;;;1.20;;
14510;SDS011;7341;50.930;4.038;2022-10-16T01:22:31;1.70;;;1.10;;
14510;SDS011;7341;50.930;4.038;2022-10-16T01:25:05;1.90;;;1.20;;
14510;SDS011;7341;50.930;4.038;2022-10-16T01:27:42;1.30;;;1.10;;
14510;SDS011;7341;50.930;4.038;2022-10-16T01:30:13;1.20;;;1.10;;
14510;SDS011;7341;50.930;4.038;2022-10-16T01:32:45;1.55;;;1.40;;
14510;SDS011;7341;50.930;4.038;2022-10-16T01:35:18;1.57;;;1.10;;
14510;SDS011;7341;50.930;4.038;2022-10-16T01:37:49;1.60;;;1.40;;
14510;SDS011;7341;50.930;4.038;2022-10-16T01:40:19;1.17;;;1.10;;
14510;SDS011;7341;50.930;4.038;2022-10-16T01:42:51;3.60;;;1.40;;
14510;SDS011;7341;50.930;4.038;2022-10-16T01:45:24;1.37;;;1.23;;
14510;SDS011;7341;50.930;4.038;2022-10-16T01:47:51;1.23;;;1.20;;
14510;SDS011;7341;50.930;4.038;2022-10-16T01:50:31;1.10;;;1.10;;
14510;SDS011;7341;50.930;4.038;2022-10-16T01:53:02;3.07;;;1.50;;
14510;SDS011;7341;50.930;4.038;2022-10-16T01:55:37;1.77;;;1.50;;
14510;SDS011;7341;50.930;4.038;2022-10-16T01:58:12;2.73;;;1.47;;
14510;SDS011;7341;50.930;4.038;2022-10-16T02:00:41;5.73;;;1.47;;
14510;SDS011;7341;50.930;4.038;2022-10-16T02:03:11;2.43;;;1.37;;
14510;SDS011;7341;50.930;4.038;2022-10-16T02:05:42;2.07;;;1.50;;
14510;SDS011;7341;50.930;4.038;2022-10-16T02:08:18;1.73;;;1.63;;
14510;SDS011;7341;50.930;4.038;2022-10-16T02:10:45;2.97;;;1.37;;
14510;SDS011;7341;50.930;4.038;2022-10-16T02:13:22;3.30;;;1.47;;
14510;SDS011;7341;50.930;4.038;2022-10-16T02:15:52;2.37;;;1.47;;
14510;SDS011;7341;50.930;4.038;2022-10-16T02:18:25;1.47;;;1.40;;
14510;SDS011;7341;50.930;4.038;2022-10-16T02:20:55;2.50;;;1.57;;
14510;SDS011;7341;50.930;4.038;2022-10-16T02:23:29;2.80;;;1.50;;
14510;SDS011;7341;50.930;4.038;2022-10-16T02:26:03;1.70;;;1.60;;
14510;SDS011;7341;50.930;4.038;2022-10-16T02:28:36;2.60;;;1.40;;
14510;SDS011;7341;50.930;4.038;2022-10-16T02:31:08;3.10;;;1.70;;
14510;SDS011;7341;50.930;4.038;2022-10-16T02:33:37;2.30;;;1.60;;
14510;SDS011;7341;50.930;4.038;2022-10-16T02:36:07;1.50;;;1.40;;
14510;SDS011;7341;50.930;4.038;2022-10-16T02:38:35;2.43;;;1.43;;
14510;SDS011;7341;50.930;4.038;2022-10-16T02:41:03;2.00;;;1.40;;
14510;SDS011;7341;50.930;4.038;2022-10-16T02:43:31;1.90;;;1.40;;
14510;SDS011;7341;50.930;4.038;2022-10-16T02:46:00;2.53;;;1.50;;
14510;SDS011;7341;50.930;4.038;2022-10-16T02:48:30;3.80;;;1.50;;
14510;SDS011;7341;50.930;4.038;2022-10-16T02:51:16;2.97;;;1.60;;
14510;SDS011;7341;50.930;4.038;2022-10-16T02:53:44;1.80;;;1.70;;
14510;SDS011;7341;50.930;4.038;2022-10-16T02:56:11;2.93;;;1.63;;
14510;SDS011;7341;50.930;4.038;2022-10-16T02:58:39;4.93;;;1.70;;
14510;SDS011;7341;50.930;4.038;2022-10-16T03:01:11;3.70;;;1.80;;
14510;SDS011;7341;50.930;4.038;2022-10-16T03:03:42;1.80;;;1.40;;
14510;SDS011;7341;50.930;4.038;2022-10-16T03:06:09;3.73;;;1.70;;
14510;SDS011;7341;50.930;4.038;2022-10-16T03:08:38;2.90;;;1.80;;
14510;SDS011;7341;50.930;4.038;2022-10-16T03:11:05;5.07;;;1.90;;
14510;SDS011;7341;50.930;4.038;2022-10-16T03:13:34;6.77;;;2.30;;
14510;SDS011;7341;50.930;4.038;2022-10-16T03:16:04;1.80;;;1.50;;
14510;SDS011;7341;50.930;4.038;2022-10-16T03:18:32;2.67;;;1.80;;
14510;SDS011;7341;50.930;4.038;2022-10-16T03:21:01;1.70;;;1.57;;
14510;SDS011;7341;50.930;4.038;2022-10-16T03:23:30;4.43;;;2.00;;
14510;SDS011;7341;50.930;4.038;2022-10-16T03:26:00;2.00;;;1.90;;
14510;SDS011;7341;50.930;4.038;2022-10-16T03:28:26;1.63;;;1.53;;
14510;SDS011;7341;50.930;4.038;2022-10-16T03:30:53;2.40;;;2.10;;
14510;SDS011;7341;50.930;4.038;2022-10-16T03:33:20;3.00;;;1.70;;
14510;SDS011;7341;50.930;4.038;2022-10-16T03:35:50;3.30;;;1.80;;
14510;SDS011;7341;50.930;4.038;2022-10-16T03:38:19;2.50;;;1.77;;
14510;SDS011;7341;50.930;4.038;2022-10-16T03:40:46;2.77;;;1.90;;
14510;SDS011;7341;50.930;4.038;2022-10-16T03:43:17;1.63;;;1.53;;
14510;SDS011;7341;50.930;4.038;2022-10-16T03:45:44;3.67;;;1.87;;
14510;SDS011;7341;50.930;4.038;2022-10-16T03:48:11;2.23;;;1.97;;
14510;SDS011;7341;50.930;4.038;2022-10-16T03:50:38;2.73;;;1.87;;
14510;SDS011;7341;50.930;4.038;2022-10-16T03:53:10;3.07;;;1.83;;
14510;SDS011;7341;50.930;4.038;2022-10-16T03:55:37;8.30;;;1.87;;
14510;SDS011;7341;50.930;4.038;2022-10-16T03:58:04;2.90;;;2.00;;
14510;SDS011;7341;50.930;4.038;2022-10-16T04:00:32;4.47;;;1.97;;
14510;SDS011;7341;50.930;4.038;2022-10-16T04:02:59;4.00;;;2.20;;
14510;SDS011;7341;50.930;4.038;2022-10-16T04:05:32;1.97;;;1.83;;
14510;SDS011;7341;50.930;4.038;2022-10-16T04:08:05;3.93;;;2.30;;
14510;SDS011;7341;50.930;4.038;2022-10-16T04:10:32;3.40;;;2.00;;
14510;SDS011;7341;50.930;4.038;2022-10-16T04:15:29;4.87;;;2.30;;
14510;SDS011;7341;50.930;4.038;2022-10-16T04:20:27;2.53;;;2.33;;
14510;SDS011;7341;50.930;4.038;2022-10-16T04:23:01;3.07;;;2.73;;
14510;SDS011;7341;50.930;4.038;2022-10-16T04:25:34;5.13;;;2.53;;
14510;SDS011;7341;50.930;4.038;2022-10-16T04:28:01;2.27;;;2.17;;
14510;SDS011;7341;50.930;4.038;2022-10-16T04:30:28;3.30;;;2.33;;
14510;SDS011;7341;50.930;4.038;2022-10-16T04:32:55;4.00;;;2.47;;
14510;SDS011;7341;50.930;4.038;2022-10-16T04:35:28;4.00;;;1.97;;
14510;SDS011;7341;50.930;4.038;2022-10-16T04:37:56;3.30;;;2.30;;
14510;SDS011;7341;50.930;4.038;2022-10-16T04:40:23;2.60;;;2.13;;
14510;SDS011;7341;50.930;4.038;2022-10-16T04:42:50;3.10;;;2.20;;
14510;SDS011;7341;50.930;4.038;2022-10-16T04:45:17;2.47;;;2.27;;
14510;SDS011;7341;50.930;4.038;2022-10-16T04:47:44;3.13;;;1.90;;
14510;SDS011;7341;50.930;4.038;2022-10-16T04:50:11;4.27;;;2.47;;
14510;SDS011;7341;50.930;4.038;2022-10-16T04:52:45;4.10;;;2.20;;
14510;SDS011;7341;50.930;4.038;2022-10-16T04:55:14;6.13;;;2.50;;
14510;SDS011;7341;50.930;4.038;2022-10-16T04:57:41;2.93;;;1.90;;
14510;SDS011;7341;50.930;4.038;2022-10-16T05:00:08;4.00;;;2.13;;
14510;SDS011;7341;50.930;4.038;2022-10-16T05:02:36;3.67;;;2.50;;
14510;SDS011;7341;50.930;4.038;2022-10-16T05:07:33;2.50;;;2.30;;
14510;SDS011;7341;50.930;4.038;2022-10-16T05:10:09;2.30;;;2.10;;
14510;SDS011;7341;50.930;4.038;2022-10-16T05:15:08;2.73;;;2.00;;
14510;SDS011;7341;50.930;4.038;2022-10-16T05:17:37;2.83;;;1.93;;
14510;SDS011;7341;50.930;4.038;2022-10-16T05:20:04;2.50;;;2.00;;
14510;SDS011;7341;50.930;4.038;2022-10-16T05:22:31;2.53;;;1.97;;
14510;SDS011;7341;50.930;4.038;2022-10-16T05:24:59;3.20;;;1.83;;
14510;SDS011;7341;50.930;4.038;2022-10-16T05:27:27;2.97;;;2.07;;
14510;SDS011;7341;50.930;4.038;2022-10-16T05:29:54;2.30;;;2.00;;
14510;SDS011;7341;50.930;4.038;2022-10-16T05:32:21;3.13;;;2.23;;
14510;SDS011;7341;50.930;4.038;2022-10-16T05:34:48;2.50;;;2.13;;
14510;SDS011;7341;50.930;4.038;2022-10-16T05:37:14;5.57;;;2.17;;
14510;SDS011;7341;50.930;4.038;2022-10-16T05:39:47;3.17;;;2.60;;
14510;SDS011;7341;50.930;4.038;2022-10-16T05:42:16;6.47;;;2.50;;
14510;SDS011;7341;50.930;4.038;2022-10-16T05:44:44;3.03;;;2.70;;
14510;SDS011;7341;50.930;4.038;2022-10-16T05:47:12;3.00;;;2.03;;
14510;SDS011;7341;50.930;4.038;2022-10-16T05:49:39;6.00;;;2.60;;
14510;SDS011;7341;50.930;4.038;2022-10-16T05:52:11;2.73;;;2.03;;
14510;SDS011;7341;50.930;4.038;2022-10-16T05:54:44;3.70;;;2.63;;
14510;SDS011;7341;50.930;4.038;2022-10-16T05:57:11;2.70;;;2.30;;
14510;SDS011;7341;50.930;4.038;2022-10-16T05:59:38;3.83;;;2.33;;
14510;SDS011;7341;50.930;4.038;2022-10-16T06:02:07;3.63;;;2.20;;
14510;SDS011;7341;50.930;4.038;2022-10-16T06:04:37;4.70;;;2.33;;
14510;SDS011;7341;50.930;4.038;2022-10-16T06:07:04;4.70;;;2.77;;
14510;SDS011;7341;50.930;4.038;2022-10-16T06:09:34;4.00;;;2.27;;
14510;SDS011;7341;50.930;4.038;2022-10-16T06:12:09;5.10;;;2.17;;
14510;SDS011;7341;50.930;4.038;2022-10-16T06:14:36;4.90;;;2.10;;
14510;SDS011;7341;50.930;4.038;2022-10-16T06:17:02;2.60;;;2.10;;
14510;SDS011;7341;50.930;4.038;2022-10-16T06:19:30;3.07;;;2.20;;
14510;SDS011;7341;50.930;4.038;2022-10-16T06:21:58;3.07;;;2.00;;
14510;SDS011;7341;50.930;4.038;2022-10-16T06:24:27;4.53;;;2.30;;
14510;SDS011;7341;50.930;4.038;2022-10-16T06:26:54;2.47;;;2.23;;
14510;SDS011;7341;50.930;4.038;2022-10-16T06:29:22;5.57;;;2.87;;
14510;SDS011;7341;50.930;4.038;2022-10-16T06:31:49;4.90;;;2.50;;
14510;SDS011;7341;50.930;4.038;2022-10-16T06:34:15;2.70;;;2.13;;
14510;SDS011;7341;50.930;4.038;2022-10-16T06:36:44;3.40;;;2.30;;
14510;SDS011;7341;50.930;4.038;2022-10-16T06:39:10;5.17;;;2.07;;
14510;SDS011;7341;50.930;4.038;2022-10-16T06:41:37;5.37;;;2.50;;
14510;SDS011;7341;50.930;4.038;2022-10-16T06:44:05;4.73;;;2.30;;
14510;SDS011;7341;50.930;4.038;2022-10-16T06:46:35;2.73;;;2.40;;
14510;SDS011;7341;50.930;4.038;2022-10-16T06:49:02;2.50;;;2.30;;
14510;SDS011;7341;50.930;4.038;2022-10-16T06:51:28;3.93;;;2.60;;
14510;SDS011;7341;50.930;4.038;2022-10-16T06:53:59;4.50;;;2.70;;
14510;SDS011;7341;50.930;4.038;2022-10-16T06:56:27;4.63;;;2.30;;
14510;SDS011;7341;50.930;4.038;2022-10-16T06:58:55;2.77;;;2.57;;
14510;SDS011;7341;50.930;4.038;2022-10-16T07:01:22;3.67;;;2.73;;
14510;SDS011;7341;50.930;4.038;2022-10-16T07:03:49;4.50;;;2.20;;
14510;SDS011;7341;50.930;4.038;2022-10-16T07:06:17;4.57;;;2.60;;
14510;SDS011;7341;50.930;4.038;2022-10-16T07:08:45;5.70;;;2.90;;
14510;SDS011;7341;50.930;4.038;2022-10-16T07:11:16;3.67;;;2.50;;
14510;SDS011;7341;50.930;4.038;2022-10-16T07:13:47;5.57;;;2.87;;
14510;SDS011;7341;50.930;4.038;2022-10-16T07:16:17;5.37;;;2.20;;
14510;SDS011;7341;50.930;4.038;2022-10-16T07:18:45;2.37;;;2.07;;
14510;SDS011;7341;50.930;4.038;2022-10-16T07:21:14;3.10;;;1.70;;
14510;SDS011;7341;50.930;4.038;2022-10-16T07:23:45;3.37;;;2.17;;
14510;SDS011;7341;50.930;4.038;2022-10-16T07:26:12;2.40;;;2.20;;
14510;SDS011;7341;50.930;4.038;2022-10-16T07:28:40;4.07;;;2.50;;
14510;SDS011;7341;50.930;4.038;2022-10-16T07:31:10;3.17;;;2.30;;
14510;SDS011;7341;50.930;4.038;2022-10-16T07:33:38;4.47;;;2.30;;
14510;SDS011;7341;50.930;4.038;2022-10-16T07:36:07;3.40;;;2.37;;
14510;SDS011;7341;50.930;4.038;2022-10-16T07:38:34;4.72;;;3.40;;
14510;SDS011;7341;50.930;4.038;2022-10-16T07:41:01;2.23;;;2.00;;
14510;SDS011;7341;50.930;4.038;2022-10-16T07:43:30;3.80;;;2.53;;
14510;SDS011;7341;50.930;4.038;2022-10-16T07:45:58;4.77;;;2.43;;
14510;SDS011;7341;50.930;4.038;2022-10-16T07:48:28;3.10;;;2.17;;
14510;SDS011;7341;50.930;4.038;2022-10-16T07:50:57;3.27;;;1.90;;
14510;SDS011;7341;50.930;4.038;2022-10-16T07:53:24;2.97;;;2.10;;
14510;SDS011;7341;50.930;4.038;2022-10-16T07:55:51;3.10;;;2.20;;
14510;SDS011;7341;50.930;4.038;2022-10-16T07:58:20;2.77;;;2.50;;
14510;SDS011;7341;50.930;4.038;2022-10-16T08:00:47;3.13;;;2.37;;
14510;SDS011;7341;50.930;4.038;2022-10-16T08:03:15;3.93;;;2.00;;
14510;SDS011;7341;50.930;4.038;2022-10-16T08:05:42;4.70;;;3.80;;
14510;SDS011;7341;50.930;4.038;2022-10-16T08:08:11;8.20;;;5.57;;
14510;SDS011;7341;50.930;4.038;2022-10-16T08:10:39;2.30;;;2.17;;
14510;SDS011;7341;50.930;4.038;2022-10-16T08:13:06;4.70;;;2.00;;
14510;SDS011;7341;50.930;4.038;2022-10-16T08:15:32;5.70;;;2.53;;
14510;SDS011;7341;50.930;4.038;2022-10-16T08:18:00;6.57;;;2.03;;
14510;SDS011;7341;50.930;4.038;2022-10-16T08:20:30;3.63;;;2.17;;
14510;SDS011;7341;50.930;4.038;2022-10-16T08:22:58;4.60;;;3.03;;
14510;SDS011;7341;50.930;4.038;2022-10-16T08:25:25;5.87;;;2.80;;
14510;SDS011;7341;50.930;4.038;2022-10-16T08:27:52;2.03;;;1.90;;
14510;SDS011;7341;50.930;4.038;2022-10-16T08:30:20;8.40;;;2.43;;
14510;SDS011;7341;50.930;4.038;2022-10-16T08:32:48;2.90;;;1.70;;
14510;SDS011;7341;50.930;4.038;2022-10-16T08:35:15;4.13;;;1.73;;
14510;SDS011;7341;50.930;4.038;2022-10-16T08:37:43;3.00;;;1.80;;
14510;SDS011;7341;50.930;4.038;2022-10-16T08:40:13;2.60;;;1.90;;
14510;SDS011;7341;50.930;4.038;2022-10-16T08:42:53;2.83;;;1.77;;
14510;SDS011;7341;50.930;4.038;2022-10-16T08:45:44;5.13;;;1.83;;
14510;SDS011;7341;50.930;4.038;2022-10-16T08:48:25;8.53;;;1.80;;
14510;SDS011;7341;50.930;4.038;2022-10-16T08:50:57;3.87;;;1.80;;
14510;SDS011;7341;50.930;4.038;2022-10-16T08:53:26;7.40;;;2.23;;
14510;SDS011;7341;50.930;4.038;2022-10-16T08:55:56;5.03;;;2.03;;
14510;SDS011;7341;50.930;4.038;2022-10-16T08:58:26;6.97;;;2.07;;
14510;SDS011;7341;50.930;4.038;2022-10-16T09:00:56;4.20;;;1.63;;
14510;SDS011;7341;50.930;4.038;2022-10-16T09:03:28;4.60;;;2.00;;
14510;SDS011;7341;50.930;4.038;2022-10-16T09:06:09;3.93;;;1.80;;
14510;SDS011;7341;50.930;4.038;2022-10-16T09:08:49;4.03;;;1.80;;
14510;SDS011;7341;50.930;4.038;2022-10-16T09:11:26;4.40;;;1.93;;
14510;SDS011;7341;50.930;4.038;2022-10-16T09:14:06;4.23;;;1.53;;
14510;SDS011;7341;50.930;4.038;2022-10-16T09:16:42;3.43;;;1.90;;
14510;SDS011;7341;50.930;4.038;2022-10-16T09:19:18;4.07;;;2.03;;
14510;SDS011;7341;50.930;4.038;2022-10-16T09:21:48;2.23;;;1.50;;
14510;SDS011;7341;50.930;4.038;2022-10-16T09:24:19;5.37;;;1.80;;
14510;SDS011;7341;50.930;4.038;2022-10-16T09:26:46;6.77;;;2.60;;
14510;SDS011;7341;50.930;4.038;2022-10-16T09:29:14;5.63;;;1.60;;
14510;SDS011;7341;50.930;4.038;2022-10-16T09:31:41;4.30;;;1.70;;
14510;SDS011;7341;50.930;4.038;2022-10-16T09:34:11;3.47;;;1.67;;
14510;SDS011;7341;50.930;4.038;2022-10-16T09:36:46;6.73;;;1.83;;
14510;SDS011;7341;50.930;4.038;2022-10-16T09:39:13;3.63;;;1.30;;
14510;SDS011;7341;50.930;4.038;2022-10-16T09:41:42;3.83;;;1.60;;
14510;SDS011;7341;50.930;4.038;2022-10-16T09:44:16;3.57;;;1.50;;
14510;SDS011;7341;50.930;4.038;2022-10-16T09:46:47;3.17;;;1.40;;
14510;SDS011;7341;50.930;4.038;2022-10-16T09:49:21;3.90;;;1.30;;
14510;SDS011;7341;50.930;4.038;2022-10-16T09:51:49;5.87;;;1.73;;
14510;SDS011;7341;50.930;4.038;2022-10-16T09:54:19;5.57;;;1.60;;
14510;SDS011;7341;50.930;4.038;2022-10-16T09:56:48;3.93;;;1.40;;
14510;SDS011;7341;50.930;4.038;2022-10-16T09:59:17;4.90;;;1.67;;
14510;SDS011;7341;50.930;4.038;2022-10-16T10:01:45;4.90;;;2.00;;
14510;SDS011;7341;50.930;4.038;2022-10-16T10:04:14;5.65;;;1.77;;
14510;SDS011;7341;50.930;4.038;2022-10-16T10:06:43;4.33;;;1.67;;
14510;SDS011;7341;50.930;4.038;2022-10-16T10:09:15;4.50;;;1.63;;
14510;SDS011;7341;50.930;4.038;2022-10-16T10:11:48;4.00;;;1.60;;
14510;SDS011;7341;50.930;4.038;2022-10-16T10:14:18;5.93;;;1.97;;
14510;SDS011;7341;50.930;4.038;2022-10-16T10:16:48;2.13;;;1.30;;
14510;SDS011;7341;50.930;4.038;2022-10-16T10:19:16;3.63;;;1.73;;
14510;SDS011;7341;50.930;4.038;2022-10-16T10:21:44;5.20;;;1.80;;
14510;SDS011;7341;50.930;4.038;2022-10-16T10:24:11;3.10;;;1.57;;
14510;SDS011;7341;50.930;4.038;2022-10-16T10:26:41;5.50;;;2.00;;
14510;SDS011;7341;50.930;4.038;2022-10-16T10:29:18;5.50;;;2.10;;
14510;SDS011;7341;50.930;4.038;2022-10-16T10:31:54;3.60;;;1.50;;
14510;SDS011;7341;50.930;4.038;2022-10-16T10:34:41;3.80;;;1.57;;
14510;SDS011;7341;50.930;4.038;2022-10-16T10:37:29;5.77;;;1.73;;
14510;SDS011;7341;50.930;4.038;2022-10-16T10:40:15;3.17;;;1.60;;
14510;SDS011;7341;50.930;4.038;2022-10-16T10:42:56;9.63;;;1.43;;
14510;SDS011;7341;50.930;4.038;2022-10-16T10:45:35;5.13;;;1.70;;
14510;SDS011;7341;50.930;4.038;2022-10-16T10:48:20;4.33;;;1.70;;
14510;SDS011;7341;50.930;4.038;2022-10-16T10:51:01;4.43;;;1.57;;
14510;SDS011;7341;50.930;4.038;2022-10-16T10:53:35;3.50;;;1.37;;
14510;SDS011;7341;50.930;4.038;2022-10-16T10:56:14;4.23;;;1.30;;
14510;SDS011;7341;50.930;4.038;2022-10-16T10:59:00;5.63;;;1.97;;
14510;SDS011;7341;50.930;4.038;2022-10-16T11:01:55;4.80;;;1.50;;
14510;SDS011;7341;50.930;4.038;2022-10-16T11:04:33;2.83;;;1.47;;
14510;SDS011;7341;50.930;4.038;2022-10-16T11:07:20;5.23;;;1.40;;
14510;SDS011;7341;50.930;4.038;2022-10-16T11:09:53;3.13;;;1.87;;
14510;SDS011;7341;50.930;4.038;2022-10-16T11:12:38;3.93;;;1.50;;
14510;SDS011;7341;50.930;4.038;2022-10-16T11:15:18;3.77;;;1.13;;
14510;SDS011;7341;50.930;4.038;2022-10-16T11:17:57;3.83;;;1.40;;
14510;SDS011;7341;50.930;4.038;2022-10-16T11:20:41;5.30;;;1.93;;
14510;SDS011;7341;50.930;4.038;2022-10-16T11:23:14;3.37;;;1.30;;
14510;SDS011;7341;50.930;4.038;2022-10-16T11:25:47;3.13;;;1.17;;
14510;SDS011;7341;50.930;4.038;2022-10-16T11:28:15;3.23;;;1.33;;
14510;SDS011;7341;50.930;4.038;2022-10-16T11:30:48;2.73;;;1.00;;
14510;SDS011;7341;50.930;4.038;2022-10-16T11:33:27;6.73;;;1.83;;
14510;SDS011;7341;50.930;4.038;2022-10-16T11:36:01;4.60;;;1.47;;
14510;SDS011;7341;50.930;4.038;2022-10-16T11:38:37;3.47;;;1.70;;
14510;SDS011;7341;50.930;4.038;2022-10-16T11:41:14;5.10;;;1.77;;
14510;SDS011;7341;50.930;4.038;2022-10-16T11:43:53;3.37;;;1.30;;
14510;SDS011;7341;50.930;4.038;2022-10-16T11:46:34;6.40;;;1.60;;
14510;SDS011;7341;50.930;4.038;2022-10-16T11:49:07;2.90;;;1.30;;
14510;SDS011;7341;50.930;4.038;2022-10-16T11:51:39;6.20;;;1.27;;
14510;SDS011;7341;50.930;4.038;2022-10-16T11:54:16;1.87;;;1.40;;
14510;SDS011;7341;50.930;4.038;2022-10-16T11:56:57;3.03;;;1.17;;
14510;SDS011;7341;50.930;4.038;2022-10-16T11:59:29;6.10;;;1.77;;
14510;SDS011;7341;50.930;4.038;2022-10-16T12:02:16;5.63;;;1.30;;
14510;SDS011;7341;50.930;4.038;2022-10-16T12:05:12;7.60;;;1.57;;
14510;SDS011;7341;50.930;4.038;2022-10-16T12:07:47;3.10;;;1.37;;
14510;SDS011;7341;50.930;4.038;2022-10-16T12:10:21;3.37;;;1.50;;
14510;SDS011;7341;50.930;4.038;2022-10-16T12:12:52;3.37;;;1.40;;
14510;SDS011;7341;50.930;4.038;2022-10-16T12:15:24;6.00;;;1.50;;
14510;SDS011;7341;50.930;4.038;2022-10-16T12:17:54;6.73;;;1.80;;
14510;SDS011;7341;50.930;4.038;2022-10-16T12:20:23;3.63;;;1.40;;
14510;SDS011;7341;50.930;4.038;2022-10-16T12:22:53;4.10;;;1.47;;
14510;SDS011;7341;50.930;4.038;2022-10-16T12:25:28;2.60;;;1.20;;
14510;SDS011;7341;50.930;4.038;2022-10-16T12:27:58;4.03;;;1.77;;
14510;SDS011;7341;50.930;4.038;2022-10-16T12:30:27;4.60;;;1.27;;
14510;SDS011;7341;50.930;4.038;2022-10-16T12:32:57;4.40;;;1.60;;
14510;SDS011;7341;50.930;4.038;2022-10-16T12:35:27;3.43;;;1.50;;
14510;SDS011;7341;50.930;4.038;2022-10-16T12:38:06;3.53;;;1.27;;
14510;SDS011;7341;50.930;4.038;2022-10-16T12:40:39;1.73;;;1.00;;
14510;SDS011;7341;50.930;4.038;2022-10-16T12:43:11;1.40;;;1.30;;
14510;SDS011;7341;50.930;4.038;2022-10-16T12:45:58;4.40;;;1.33;;
14510;SDS011;7341;50.930;4.038;2022-10-16T12:48:27;3.70;;;1.20;;
14510;SDS011;7341;50.930;4.038;2022-10-16T12:50:55;2.10;;;1.20;;
14510;SDS011;7341;50.930;4.038;2022-10-16T12:53:23;2.47;;;1.20;;
14510;SDS011;7341;50.930;4.038;2022-10-16T12:55:53;2.77;;;1.10;;
14510;SDS011;7341;50.930;4.038;2022-10-16T12:58:31;1.53;;;1.00;;
14510;SDS011;7341;50.930;4.038;2022-10-16T13:01:11;4.73;;;1.10;;
14510;SDS011;7341;50.930;4.038;2022-10-16T13:06:45;2.73;;;1.20;;
14510;SDS011;7341;50.930;4.038;2022-10-16T13:09:20;1.23;;;1.00;;
14510;SDS011;7341;50.930;4.038;2022-10-16T13:12:03;1.83;;;0.87;;
14510;SDS011;7341;50.930;4.038;2022-10-16T13:14:54;2.17;;;0.80;;
14510;SDS011;7341;50.930;4.038;2022-10-16T13:17:36;1.43;;;0.90;;
14510;SDS011;7341;50.930;4.038;2022-10-16T13:20:15;3.83;;;1.00;;
14510;SDS011;7341;50.930;4.038;2022-10-16T13:22:49;2.63;;;0.93;;
14510;SDS011;7341;50.930;4.038;2022-10-16T13:25:31;2.00;;;1.20;;
14510;SDS011;7341;50.930;4.038;2022-10-16T13:28:06;3.67;;;1.00;;
14510;SDS011;7341;50.930;4.038;2022-10-16T13:30:36;2.63;;;0.80;;
14510;SDS011;7341;50.930;4.038;2022-10-16T13:38:18;1.57;;;1.00;;
14510;SDS011;7341;50.930;4.038;2022-10-16T13:40:50;1.60;;;1.00;;
14510;SDS011;7341;50.930;4.038;2022-10-16T13:43:19;2.90;;;1.00;;
14510;SDS011;7341;50.930;4.038;2022-10-16T13:45:53;3.23;;;1.10;;
14510;SDS011;7341;50.930;4.038;2022-10-16T13:48:21;1.60;;;0.87;;
14510;SDS011;7341;50.930;4.038;2022-10-16T13:50:59;4.03;;;1.37;;
14510;SDS011;7341;50.930;4.038;2022-10-16T13:53:27;3.20;;;1.17;;
14510;SDS011;7341;50.930;4.038;2022-10-16T13:56:00;3.47;;;1.20;;
14510;SDS011;7341;50.930;4.038;2022-10-16T13:58:29;3.07;;;1.10;;
14510;SDS011;7341;50.930;4.038;2022-10-16T14:01:05;1.87;;;0.80;;
14510;SDS011;7341;50.930;4.038;2022-10-16T14:03:41;3.67;;;1.07;;
14510;SDS011;7341;50.930;4.038;2022-10-16T14:06:12;2.47;;;1.10;;
14510;SDS011;7341;50.930;4.038;2022-10-16T14:08:46;2.57;;;1.00;;
14510;SDS011;7341;50.930;4.038;2022-10-16T14:11:22;5.70;;;1.20;;
14510;SDS011;7341;50.930;4.038;2022-10-16T14:13:51;2.87;;;0.90;;
14510;SDS011;7341;50.930;4.038;2022-10-16T14:16:22;2.53;;;0.90;;
14510;SDS011;7341;50.930;4.038;2022-10-16T14:18:54;2.20;;;1.00;;
14510;SDS011;7341;50.930;4.038;2022-10-16T14:21:28;5.40;;;1.63;;
14510;SDS011;7341;50.930;4.038;2022-10-16T14:23:55;2.83;;;1.40;;
14510;SDS011;7341;50.930;4.038;2022-10-16T14:26:23;1.63;;;0.97;;
14510;SDS011;7341;50.930;4.038;2022-10-16T14:29:01;4.03;;;0.93;;
14510;SDS011;7341;50.930;4.038;2022-10-16T14:31:36;4.43;;;0.97;;
14510;SDS011;7341;50.930;4.038;2022-10-16T14:34:04;2.27;;;0.90;;
14510;SDS011;7341;50.930;4.038;2022-10-16T14:36:50;3.93;;;0.97;;
14510;SDS011;7341;50.930;4.038;2022-10-16T14:39:19;3.70;;;1.40;;
14510;SDS011;7341;50.930;4.038;2022-10-16T14:41:49;4.03;;;1.43;;
14510;SDS011;7341;50.930;4.038;2022-10-16T14:44:17;4.87;;;1.20;;
14510;SDS011;7341;50.930;4.038;2022-10-16T14:46:45;4.00;;;1.10;;
14510;SDS011;7341;50.930;4.038;2022-10-16T14:49:14;3.30;;;1.10;;
14510;SDS011;7341;50.930;4.038;2022-10-16T14:51:45;3.47;;;1.40;;
14510;SDS011;7341;50.930;4.038;2022-10-16T14:54:16;3.07;;;1.10;;
14510;SDS011;7341;50.930;4.038;2022-10-16T14:56:51;2.53;;;1.10;;
14510;SDS011;7341;50.930;4.038;2022-10-16T14:59:20;3.60;;;1.10;;
14510;SDS011;7341;50.930;4.038;2022-10-16T15:01:51;2.53;;;1.07;;
14510;SDS011;7341;50.930;4.038;2022-10-16T15:04:18;2.77;;;1.00;;
14510;SDS011;7341;50.930;4.038;2022-10-16T15:06:45;1.90;;;0.90;;
14510;SDS011;7341;50.930;4.038;2022-10-16T15:09:12;4.87;;;1.10;;
14510;SDS011;7341;50.930;4.038;2022-10-16T15:11:42;2.53;;;1.00;;
14510;SDS011;7341;50.930;4.038;2022-10-16T15:14:12;3.43;;;1.30;;
14510;SDS011;7341;50.930;4.038;2022-10-16T15:16:39;3.43;;;1.00;;
14510;SDS011;7341;50.930;4.038;2022-10-16T15:19:06;8.70;;;1.40;;
14510;SDS011;7341;50.930;4.038;2022-10-16T15:21:35;2.35;;;1.42;;
14510;SDS011;7341;50.930;4.038;2022-10-16T15:24:05;5.93;;;1.60;;
14510;SDS011;7341;50.930;4.038;2022-10-16T15:26:39;2.33;;;1.57;;
14510;SDS011;7341;50.930;4.038;2022-10-16T15:29:08;2.43;;;1.10;;
14510;SDS011;7341;50.930;4.038;2022-10-16T15:31:36;4.10;;;1.47;;
14510;SDS011;7341;50.930;4.038;2022-10-16T15:34:03;2.13;;;1.43;;
14510;SDS011;7341;50.930;4.038;2022-10-16T15:36:32;2.80;;;1.70;;
14510;SDS011;7341;50.930;4.038;2022-10-16T15:39:01;2.43;;;1.70;;
14510;SDS011;7341;50.930;4.038;2022-10-16T15:41:29;4.03;;;1.57;;
14510;SDS011;7341;50.930;4.038;2022-10-16T15:43:56;2.37;;;1.50;;